Aqua Jewel — SZLD — position and weather

sailwx.info

Track history (hours):
 
Tides and Currents Weather Stations Pressure Air Temp Water Temp Dewpoint Dewpoint Depression Visibility Wind Speed Wind Dir Waves Ship Positions

Aqua Jewel

Last reported at 2017-Sep-22 02:00 UTC. Time now 2017-Sep-22 04:34 UTC.
Position N 37°26' E 024°56'.

Length 108 m; draft 3.6 m.

Type: Passenger vessel. MMSI: 239981000.

Date/timePositionNaut miles runAvg speedWind from/ knotsBaromVisibWave heightAir tempDewpointWater temp
2017-Sep-22 02:00N 37°26' E 024°56'0 0.0
2017-Sep-22 01:29N 37°26' E 024°56'0 0.0
2017-Sep-22 01:00N 37°26' E 024°56'0 0.0
2017-Sep-22 00:30N 37°26' E 024°56'0 0.0
2017-Sep-21 23:59N 37°26' E 024°56'0 0.0
2017-Sep-21 23:30N 37°26' E 024°56'0 0.0
2017-Sep-21 23:00N 37°26' E 024°56'0 0.0
2017-Sep-21 22:30N 37°26' E 024°56'3 5.3
2017-Sep-21 22:00N 37°29' E 024°57'816.0
2017-Sep-21 21:30N 37°36' E 024°53'9 4.2
2017-Sep-21 19:26N 37°44' E 024°50'814.6
2017-Sep-21 18:51N 37°39' E 024°58'514.8
2017-Sep-21 18:30N 37°35' E 025°03'612.0
2017-Sep-21 18:00N 37°32' E 025°09'713.3
2017-Sep-21 17:30N 37°26' E 025°09'714.7
2017-Sep-21 17:00N 37°18' E 025°08'714.9
2017-Sep-21 16:30N 37°11' E 025°08'6 9.8
2017-Sep-21 15:56N 37°05' E 025°09'512.3
2017-Sep-21 15:31N 37°10' E 025°08'815.8
2017-Sep-21 15:01N 37°18' E 025°08'816.2
2017-Sep-21 14:31N 37°26' E 025°09'611.8
2017-Sep-21 14:00N 37°32' E 025°09'714.4
2017-Sep-21 13:30N 37°36' E 025°02'1116.1
2017-Sep-21 12:49N 37°44' E 024°52'4 2.2
2017-Sep-21 11:07N 37°42' E 024°49'215.0
2017-Sep-21 11:01N 37°40' E 024°50'714.7
2017-Sep-21 10:30N 37°34' E 024°54'714.6
2017-Sep-21 10:01N 37°27' E 024°58'1 2.3
2017-Sep-21 09:30N 37°28' E 024°58'713.9
2017-Sep-21 09:01N 37°31' E 024°50'35 8.2
2017-Sep-21 04:47N 37°38' E 024°07'2 0.2
2017-Sep-20 21:01N 37°39' E 024°05'014.3
2017-Sep-20 21:00N 37°39' E 024°05'10 6.1
2017-Sep-20 19:23N 37°33' E 024°15'23 8.1
2017-Sep-20 16:34N 37°31' E 024°44'114.7
2017-Sep-20 16:30N 37°31' E 024°45'714.6
2017-Sep-20 16:00N 37°31' E 024°54'510.1
2017-Sep-20 15:30N 37°26' E 024°57'5 9.7
2017-Sep-20 15:00N 37°22' E 024°60'1515.1
2017-Sep-20 14:00N 37°08' E 025°06'2 4.4
2017-Sep-20 13:26N 37°06' E 025°07'614.0
2017-Sep-20 13:00N 37°10' E 025°13'713.5
2017-Sep-20 12:30N 37°07' E 025°21'0 0.8
2017-Sep-20 12:00N 37°07' E 025°21'612.1
2017-Sep-20 11:30N 37°01' E 025°17'22 6.9
2017-Sep-20 08:22N 36°40' E 025°10'20 1.1
2017-Sep-19 14:02N 36°22' E 025°22'30 5.5
2017-Sep-19 08:42N 36°50' E 025°07'1215.3
2017-Sep-19 07:55N 36°59' E 025°15'716.2
2017-Sep-19 07:30N 37°05' E 025°20'2 4.9
2017-Sep-19 07:00N 37°06' E 025°22'713.6
2017-Sep-19 06:30N 37°10' E 025°15'714.3
2017-Sep-19 06:00N 37°05' E 025°08'2 3.3
2017-Sep-19 05:30N 37°07' E 025°07'715.1
2017-Sep-19 05:01N 37°14' E 025°04'815.2
2017-Sep-19 04:31N 37°21' E 024°60'611.9
2017-Sep-19 04:00N 37°26' E 024°56'0 0.0
2017-Sep-19 03:30N 37°26' E 024°56'0 0.0
2017-Sep-19 03:00N 37°26' E 024°56'0 0.0
2017-Sep-19 02:30N 37°26' E 024°56'0 0.0
2017-Sep-19 02:00N 37°26' E 024°56'0 0.0
2017-Sep-19 01:30N 37°26' E 024°56'0 0.0
2017-Sep-19 00:58N 37°26' E 024°56'0 0.0
2017-Sep-19 00:29N 37°26' E 024°56'0 0.0
2017-Sep-19 00:00N 37°26' E 024°56'0 0.0
2017-Sep-18 23:29N 37°26' E 024°56'0 0.0
2017-Sep-18 23:00N 37°26' E 024°56'0 0.0
2017-Sep-18 22:30N 37°26' E 024°56'0 0.0
2017-Sep-18 22:00N 37°26' E 024°56'0 0.0
2017-Sep-18 21:30N 37°26' E 024°56'0 0.0
2017-Sep-18 21:00N 37°26' E 024°56'0 0.0
2017-Sep-18 20:21N 37°26' E 024°56'0 0.0
2017-Sep-18 20:00N 37°26' E 024°56'1 2.4
2017-Sep-18 19:30N 37°26' E 024°58'815.1
2017-Sep-18 19:00N 37°19' E 025°02'815.3
2017-Sep-18 18:30N 37°12' E 025°05'7 9.6
2017-Sep-18 17:46N 37°05' E 025°09'410.1
2017-Sep-18 17:20N 37°09' E 025°12'514.7
2017-Sep-18 17:00N 37°10' E 025°18'5 9.8
2017-Sep-18 16:30N 37°06' E 025°22'5 9.9
2017-Sep-18 16:01N 37°02' E 025°21'20 3.4
2017-Sep-18 10:16N 37°07' E 025°44'416.1
2017-Sep-18 10:00N 37°09' E 025°40'815.0
2017-Sep-18 09:27N 37°12' E 025°30'714.9
2017-Sep-18 09:01N 37°08' E 025°23'2 3.7
2017-Sep-18 08:30N 37°06' E 025°22'713.8
2017-Sep-18 08:00N 37°10' E 025°15'714.3
2017-Sep-18 07:30N 37°05' E 025°07'2 3.4
2017-Sep-18 07:00N 37°07' E 025°08'815.8
2017-Sep-18 06:30N 37°14' E 025°12'815.7
2017-Sep-18 06:00N 37°21' E 025°16'713.3
2017-Sep-18 05:30N 37°28' E 025°19'4 8.1
2017-Sep-18 05:01N 37°28' E 025°14'815.3
2017-Sep-18 04:30N 37°27' E 025°05'612.9
2017-Sep-18 04:00N 37°26' E 024°56'0 0.0
2017-Sep-18 03:30N 37°26' E 024°56'0 0.0
2017-Sep-18 02:58N 37°26' E 024°56'0 0.0
2017-Sep-18 02:30N 37°26' E 024°56'0 0.0
2017-Sep-18 02:00N 37°26' E 024°56'0 0.0
2017-Sep-18 01:30N 37°26' E 024°56'0 0.0
2017-Sep-18 01:00N 37°26' E 024°56'0 0.0
2017-Sep-18 00:30N 37°26' E 024°56'0 0.0
2017-Sep-18 00:00N 37°26' E 024°56'0 0.0
2017-Sep-17 23:30N 37°26' E 024°56'0 0.0
2017-Sep-17 23:00N 37°26' E 024°56'0 0.0
2017-Sep-17 22:30N 37°26' E 024°56'0 0.0
2017-Sep-17 22:00N 37°26' E 024°56'0 0.0
2017-Sep-17 21:30N 37°26' E 024°56'0 0.0
2017-Sep-17 21:00N 37°26' E 024°56'0 0.0
2017-Sep-17 20:30N 37°26' E 024°56'0 0.0
2017-Sep-17 20:00N 37°26' E 024°56'0 0.0
2017-Sep-17 19:30N 37°26' E 024°56'0 0.0
2017-Sep-17 19:00N 37°26' E 024°56'0 0.0
2017-Sep-17 18:30N 37°26' E 024°56'0 0.0
2017-Sep-17 18:00N 37°26' E 024°56'0 0.0
2017-Sep-17 17:30N 37°26' E 024°56'0 0.0
2017-Sep-17 17:00N 37°26' E 024°56'0 0.0
2017-Sep-17 16:30N 37°26' E 024°56'0 0.0
2017-Sep-17 16:00N 37°26' E 024°56'0 0.0
2017-Sep-17 15:30N 37°26' E 024°56'1 1.9
2017-Sep-17 15:00N 37°26' E 024°58'714.8
2017-Sep-17 14:30N 37°19' E 025°00'815.5
2017-Sep-17 14:00N 37°12' E 025°04'714.5
2017-Sep-17 13:30N 37°05' E 025°09'4 7.5
2017-Sep-17 12:57N 37°09' E 025°12'613.8
2017-Sep-17 12:31N 37°08' E 025°19'3 6.6
2017-Sep-17 12:00N 37°06' E 025°22'510.7
2017-Sep-17 11:30N 37°02' E 025°18'3 0.1
2017-Sep-16 07:57N 36°59' E 025°16'715.8
2017-Sep-16 07:31N 37°05' E 025°20'2 3.6
2017-Sep-16 07:01N 37°06' E 025°22'713.9
2017-Sep-16 06:31N 37°10' E 025°14'713.2
2017-Sep-16 06:01N 37°05' E 025°08'1 2.8
2017-Sep-16 05:30N 37°06' E 025°07'815.9
2017-Sep-16 05:01N 37°14' E 025°04'816.0
2017-Sep-16 04:31N 37°21' E 025°00'611.7
2017-Sep-16 04:00N 37°26' E 024°56'0 0.0
2017-Sep-16 03:29N 37°26' E 024°56'0 0.0
2017-Sep-16 02:57N 37°26' E 024°56'0 0.0
2017-Sep-16 02:30N 37°26' E 024°56'0 0.0
2017-Sep-16 01:17N 37°26' E 024°56'0 0.0
2017-Sep-16 01:00N 37°26' E 024°56'0 0.0
2017-Sep-16 00:26N 37°26' E 024°56'0 0.0
2017-Sep-16 00:00N 37°26' E 024°56'0 0.0
2017-Sep-15 23:30N 37°26' E 024°56'0 0.0
2017-Sep-15 22:59N 37°26' E 024°56'0 0.0
2017-Sep-15 22:30N 37°26' E 024°56'0 0.0
2017-Sep-15 22:00N 37°26' E 024°56'0 0.0
2017-Sep-15 21:30N 37°26' E 024°56'0 0.0
2017-Sep-15 20:59N 37°26' E 024°56'0 0.0
2017-Sep-15 20:29N 37°26' E 024°56'0 0.0
2017-Sep-15 20:00N 37°26' E 024°56'0 0.0
2017-Sep-15 19:24N 37°26' E 024°56'0 0.0
2017-Sep-15 18:58N 37°26' E 024°56'0 0.0
2017-Sep-15 18:29N 37°26' E 024°56'0 0.0
2017-Sep-15 18:00N 37°26' E 024°56'0 0.0
2017-Sep-15 17:30N 37°26' E 024°56'2 4.3
2017-Sep-15 17:00N 37°28' E 024°57'815.4
2017-Sep-15 16:30N 37°35' E 024°53'815.8
2017-Sep-15 16:00N 37°42' E 024°49'3 1.4
2017-Sep-15 14:15N 37°45' E 024°50'415.2
2017-Sep-15 14:00N 37°42' E 024°54'815.4
2017-Sep-15 13:30N 37°37' E 025°01'714.7
2017-Sep-15 13:00N 37°32' E 025°08'2 3.5
2017-Sep-15 12:31N 37°31' E 025°09'714.6
2017-Sep-15 12:01N 37°23' E 025°09'714.9
2017-Sep-15 11:31N 37°16' E 025°08'815.0
2017-Sep-15 11:00N 37°08' E 025°08'3 5.5
2017-Sep-15 10:25N 37°05' E 025°09'510.7
2017-Sep-15 10:00N 37°10' E 025°08'815.6
2017-Sep-15 09:30N 37°17' E 025°08'815.5
2017-Sep-15 09:00N 37°25' E 025°08'714.4
2017-Sep-15 08:30N 37°32' E 025°09'4 7.2
2017-Sep-15 08:01N 37°34' E 025°05'815.8
2017-Sep-15 07:30N 37°39' E 024°58'815.6
2017-Sep-15 07:01N 37°44' E 024°51'3 1.7
2017-Sep-15 05:22N 37°42' E 024°48'514.8
2017-Sep-15 05:00N 37°38' E 024°52'815.1
2017-Sep-15 04:30N 37°31' E 024°56'5 8.4
2017-Sep-15 03:58N 37°26' E 024°56'0 0.0
2017-Sep-15 03:13N 37°26' E 024°56'0 0.0
2017-Sep-15 02:59N 37°26' E 024°56'0 0.0
2017-Sep-15 01:43N 37°26' E 024°56'0 0.0
2017-Sep-15 01:30N 37°26' E 024°56'0 0.0
2017-Sep-15 01:00N 37°26' E 024°56'0 0.0
2017-Sep-15 00:29N 37°26' E 024°56'0 0.0
2017-Sep-14 23:36N 37°26' E 024°56'0 0.0
2017-Sep-14 23:30N 37°26' E 024°56'0 0.0
2017-Sep-14 22:58N 37°26' E 024°56'0 0.0
2017-Sep-14 22:30N 37°26' E 024°56'2 4.0
2017-Sep-14 22:01N 37°28' E 024°58'714.8
2017-Sep-14 21:31N 37°35' E 024°53'815.3
2017-Sep-14 21:01N 37°42' E 024°49'4 2.1
2017-Sep-14 19:18N 37°45' E 024°51'715.1
2017-Sep-14 18:50N 37°40' E 024°57'514.7
2017-Sep-14 18:30N 37°36' E 025°01'714.3
2017-Sep-14 18:00N 37°32' E 025°08'3 6.7
2017-Sep-14 17:31N 37°29' E 025°09'714.1
2017-Sep-14 17:01N 37°22' E 025°08'714.4
2017-Sep-14 16:30N 37°15' E 025°08'714.7
2017-Sep-14 16:00N 37°07' E 025°07'1 2.2
2017-Sep-14 15:30N 37°06' E 025°07'815.4
2017-Sep-14 15:01N 37°14' E 025°08'815.7
2017-Sep-14 14:30N 37°22' E 025°09'815.8
2017-Sep-14 14:01N 37°30' E 025°09'4 7.8
2017-Sep-14 13:30N 37°33' E 025°06'815.6
2017-Sep-14 13:00N 37°38' E 024°59'815.1
2017-Sep-14 12:30N 37°44' E 024°52'3 1.8
2017-Sep-14 10:43N 37°42' E 024°48'314.4
2017-Sep-14 10:31N 37°40' E 024°50'714.8
2017-Sep-14 10:01N 37°33' E 024°55'714.6
2017-Sep-14 09:30N 37°26' E 024°57'3 6.6
2017-Sep-14 09:00N 37°30' E 024°57'714.7
2017-Sep-14 08:31N 37°31' E 024°48'3 0.2
2017-Sep-13 16:21N 37°31' E 024°44'515.5
2017-Sep-13 16:01N 37°31' E 024°50'713.0
2017-Sep-13 15:31N 37°28' E 024°57'2 4.7
2017-Sep-13 15:00N 37°25' E 024°58'815.1
2017-Sep-13 14:31N 37°18' E 025°01'815.1
2017-Sep-13 14:00N 37°11' E 025°05'7 9.0
2017-Sep-13 13:15N 37°05' E 025°08'412.5
2017-Sep-13 12:54N 37°09' E 025°11'614.7
2017-Sep-13 12:30N 37°10' E 025°19'4 8.6
2017-Sep-13 12:00N 37°06' E 025°22'510.5
2017-Sep-13 11:30N 37°03' E 025°18'4 0.1
2017-Sep-12 07:58N 36°59' E 025°16'715.9
2017-Sep-12 07:30N 37°06' E 025°20'1 2.9
2017-Sep-12 07:00N 37°07' E 025°21'713.9
2017-Sep-12 06:30N 37°10' E 025°13'610.7
2017-Sep-12 05:59N 37°05' E 025°09'2 5.1
2017-Sep-12 05:31N 37°07' E 025°06'815.4
2017-Sep-12 05:01N 37°14' E 025°02'816.0
2017-Sep-12 04:31N 37°21' E 024°60'611.1
2017-Sep-12 04:00N 37°26' E 024°56'0 0.0
2017-Sep-12 03:30N 37°26' E 024°56'0 0.0
2017-Sep-12 03:00N 37°26' E 024°56'0 0.0
2017-Sep-12 02:29N 37°26' E 024°56'0 0.0
2017-Sep-12 02:00N 37°26' E 024°56'  
Track history (hours):
 
Tides and Currents Weather Stations Pressure Air Temp Water Temp Dewpoint Dewpoint Depression Visibility Wind Speed Wind Dir Waves Ship Positions

Aqua Jewel

Last reported at 2017-Sep-22 02:00 UTC. Time now 2017-Sep-22 04:34 UTC.
Position N 37°26' E 024°56'.

Length 108 m; draft 3.6 m.

Type: Passenger vessel. MMSI: 239981000.

Date/timePositionNaut miles runAvg speedWind from/ knotsBaromVisibWave heightAir tempDewpointWater temp
2017-Sep-22 02:00N 37°26' E 024°56'0 0.0
2017-Sep-22 01:29N 37°26' E 024°56'0 0.0
2017-Sep-22 01:00N 37°26' E 024°56'0 0.0
2017-Sep-22 00:30N 37°26' E 024°56'0 0.0
2017-Sep-21 23:59N 37°26' E 024°56'0 0.0
2017-Sep-21 23:30N 37°26' E 024°56'0 0.0
2017-Sep-21 23:00N 37°26' E 024°56'0 0.0
2017-Sep-21 22:30N 37°26' E 024°56'3 5.3
2017-Sep-21 22:00N 37°29' E 024°57'816.0
2017-Sep-21 21:30N 37°36' E 024°53'9 4.2
2017-Sep-21 19:26N 37°44' E 024°50'814.6
2017-Sep-21 18:51N 37°39' E 024°58'514.8
2017-Sep-21 18:30N 37°35' E 025°03'612.0
2017-Sep-21 18:00N 37°32' E 025°09'713.3
2017-Sep-21 17:30N 37°26' E 025°09'714.7
2017-Sep-21 17:00N 37°18' E 025°08'714.9
2017-Sep-21 16:30N 37°11' E 025°08'6 9.8
2017-Sep-21 15:56N 37°05' E 025°09'512.3
2017-Sep-21 15:31N 37°10' E 025°08'815.8
2017-Sep-21 15:01N 37°18' E 025°08'816.2
2017-Sep-21 14:31N 37°26' E 025°09'611.8
2017-Sep-21 14:00N 37°32' E 025°09'714.4
2017-Sep-21 13:30N 37°36' E 025°02'1116.1
2017-Sep-21 12:49N 37°44' E 024°52'4 2.2
2017-Sep-21 11:07N 37°42' E 024°49'215.0
2017-Sep-21 11:01N 37°40' E 024°50'714.7
2017-Sep-21 10:30N 37°34' E 024°54'714.6
2017-Sep-21 10:01N 37°27' E 024°58'1 2.3
2017-Sep-21 09:30N 37°28' E 024°58'713.9
2017-Sep-21 09:01N 37°31' E 024°50'35 8.2
2017-Sep-21 04:47N 37°38' E 024°07'2 0.2
2017-Sep-20 21:01N 37°39' E 024°05'014.3
2017-Sep-20 21:00N 37°39' E 024°05'10 6.1
2017-Sep-20 19:23N 37°33' E 024°15'23 8.1
2017-Sep-20 16:34N 37°31' E 024°44'114.7
2017-Sep-20 16:30N 37°31' E 024°45'714.6
2017-Sep-20 16:00N 37°31' E 024°54'510.1
2017-Sep-20 15:30N 37°26' E 024°57'5 9.7
2017-Sep-20 15:00N 37°22' E 024°60'1515.1
2017-Sep-20 14:00N 37°08' E 025°06'2 4.4
2017-Sep-20 13:26N 37°06' E 025°07'614.0
2017-Sep-20 13:00N 37°10' E 025°13'713.5
2017-Sep-20 12:30N 37°07' E 025°21'0 0.8
2017-Sep-20 12:00N 37°07' E 025°21'612.1
2017-Sep-20 11:30N 37°01' E 025°17'22 6.9
2017-Sep-20 08:22N 36°40' E 025°10'20 1.1
2017-Sep-19 14:02N 36°22' E 025°22'30 5.5
2017-Sep-19 08:42N 36°50' E 025°07'1215.3
2017-Sep-19 07:55N 36°59' E 025°15'716.2
2017-Sep-19 07:30N 37°05' E 025°20'2 4.9
2017-Sep-19 07:00N 37°06' E 025°22'713.6
2017-Sep-19 06:30N 37°10' E 025°15'714.3
2017-Sep-19 06:00N 37°05' E 025°08'2 3.3
2017-Sep-19 05:30N 37°07' E 025°07'715.1
2017-Sep-19 05:01N 37°14' E 025°04'815.2
2017-Sep-19 04:31N 37°21' E 024°60'611.9
2017-Sep-19 04:00N 37°26' E 024°56'0 0.0
2017-Sep-19 03:30N 37°26' E 024°56'0 0.0
2017-Sep-19 03:00N 37°26' E 024°56'0 0.0
2017-Sep-19 02:30N 37°26' E 024°56'0 0.0
2017-Sep-19 02:00N 37°26' E 024°56'0 0.0
2017-Sep-19 01:30N 37°26' E 024°56'0 0.0
2017-Sep-19 00:58N 37°26' E 024°56'0 0.0
2017-Sep-19 00:29N 37°26' E 024°56'0 0.0
2017-Sep-19 00:00N 37°26' E 024°56'0 0.0
2017-Sep-18 23:29N 37°26' E 024°56'0 0.0
2017-Sep-18 23:00N 37°26' E 024°56'0 0.0
2017-Sep-18 22:30N 37°26' E 024°56'0 0.0
2017-Sep-18 22:00N 37°26' E 024°56'0 0.0
2017-Sep-18 21:30N 37°26' E 024°56'0 0.0
2017-Sep-18 21:00N 37°26' E 024°56'0 0.0
2017-Sep-18 20:21N 37°26' E 024°56'0 0.0
2017-Sep-18 20:00N 37°26' E 024°56'1 2.4
2017-Sep-18 19:30N 37°26' E 024°58'815.1
2017-Sep-18 19:00N 37°19' E 025°02'815.3
2017-Sep-18 18:30N 37°12' E 025°05'7 9.6
2017-Sep-18 17:46N 37°05' E 025°09'410.1
2017-Sep-18 17:20N 37°09' E 025°12'514.7
2017-Sep-18 17:00N 37°10' E 025°18'5 9.8
2017-Sep-18 16:30N 37°06' E 025°22'5 9.9
2017-Sep-18 16:01N 37°02' E 025°21'20 3.4
2017-Sep-18 10:16N 37°07' E 025°44'416.1
2017-Sep-18 10:00N 37°09' E 025°40'815.0
2017-Sep-18 09:27N 37°12' E 025°30'714.9
2017-Sep-18 09:01N 37°08' E 025°23'2 3.7
2017-Sep-18 08:30N 37°06' E 025°22'713.8
2017-Sep-18 08:00N 37°10' E 025°15'714.3
2017-Sep-18 07:30N 37°05' E 025°07'2 3.4
2017-Sep-18 07:00N 37°07' E 025°08'815.8
2017-Sep-18 06:30N 37°14' E 025°12'815.7
2017-Sep-18 06:00N 37°21' E 025°16'713.3
2017-Sep-18 05:30N 37°28' E 025°19'4 8.1
2017-Sep-18 05:01N 37°28' E 025°14'815.3
2017-Sep-18 04:30N 37°27' E 025°05'612.9
2017-Sep-18 04:00N 37°26' E 024°56'0 0.0
2017-Sep-18 03:30N 37°26' E 024°56'0 0.0
2017-Sep-18 02:58N 37°26' E 024°56'0 0.0
2017-Sep-18 02:30N 37°26' E 024°56'0 0.0
2017-Sep-18 02:00N 37°26' E 024°56'0 0.0
2017-Sep-18 01:30N 37°26' E 024°56'0 0.0
2017-Sep-18 01:00N 37°26' E 024°56'0 0.0
2017-Sep-18 00:30N 37°26' E 024°56'0 0.0
2017-Sep-18 00:00N 37°26' E 024°56'0 0.0
2017-Sep-17 23:30N 37°26' E 024°56'0 0.0
2017-Sep-17 23:00N 37°26' E 024°56'0 0.0
2017-Sep-17 22:30N 37°26' E 024°56'0 0.0
2017-Sep-17 22:00N 37°26' E 024°56'0 0.0
2017-Sep-17 21:30N 37°26' E 024°56'0 0.0
2017-Sep-17 21:00N 37°26' E 024°56'0 0.0
2017-Sep-17 20:30N 37°26' E 024°56'0 0.0
2017-Sep-17 20:00N 37°26' E 024°56'0 0.0
2017-Sep-17 19:30N 37°26' E 024°56'0 0.0
2017-Sep-17 19:00N 37°26' E 024°56'0 0.0
2017-Sep-17 18:30N 37°26' E 024°56'0 0.0
2017-Sep-17 18:00N 37°26' E 024°56'0 0.0
2017-Sep-17 17:30N 37°26' E 024°56'0 0.0
2017-Sep-17 17:00N 37°26' E 024°56'0 0.0
2017-Sep-17 16:30N 37°26' E 024°56'0 0.0
2017-Sep-17 16:00N 37°26' E 024°56'0 0.0
2017-Sep-17 15:30N 37°26' E 024°56'1 1.9
2017-Sep-17 15:00N 37°26' E 024°58'714.8
2017-Sep-17 14:30N 37°19' E 025°00'815.5
2017-Sep-17 14:00N 37°12' E 025°04'714.5
2017-Sep-17 13:30N 37°05' E 025°09'4 7.5
2017-Sep-17 12:57N 37°09' E 025°12'613.8
2017-Sep-17 12:31N 37°08' E 025°19'3 6.6
2017-Sep-17 12:00N 37°06' E 025°22'510.7
2017-Sep-17 11:30N 37°02' E 025°18'3 0.1
2017-Sep-16 07:57N 36°59' E 025°16'715.8
2017-Sep-16 07:31N 37°05' E 025°20'2 3.6
2017-Sep-16 07:01N 37°06' E 025°22'713.9
2017-Sep-16 06:31N 37°10' E 025°14'713.2
2017-Sep-16 06:01N 37°05' E 025°08'1 2.8
2017-Sep-16 05:30N 37°06' E 025°07'815.9
2017-Sep-16 05:01N 37°14' E 025°04'816.0
2017-Sep-16 04:31N 37°21' E 025°00'611.7
2017-Sep-16 04:00N 37°26' E 024°56'0 0.0
2017-Sep-16 03:29N 37°26' E 024°56'0 0.0
2017-Sep-16 02:57N 37°26' E 024°56'0 0.0
2017-Sep-16 02:30N 37°26' E 024°56'0 0.0
2017-Sep-16 01:17N 37°26' E 024°56'0 0.0
2017-Sep-16 01:00N 37°26' E 024°56'0 0.0
2017-Sep-16 00:26N 37°26' E 024°56'0 0.0
2017-Sep-16 00:00N 37°26' E 024°56'0 0.0
2017-Sep-15 23:30N 37°26' E 024°56'0 0.0
2017-Sep-15 22:59N 37°26' E 024°56'0 0.0
2017-Sep-15 22:30N 37°26' E 024°56'0 0.0
2017-Sep-15 22:00N 37°26' E 024°56'0 0.0
2017-Sep-15 21:30N 37°26' E 024°56'0 0.0
2017-Sep-15 20:59N 37°26' E 024°56'0 0.0
2017-Sep-15 20:29N 37°26' E 024°56'0 0.0
2017-Sep-15 20:00N 37°26' E 024°56'0 0.0
2017-Sep-15 19:24N 37°26' E 024°56'0 0.0
2017-Sep-15 18:58N 37°26' E 024°56'0 0.0
2017-Sep-15 18:29N 37°26' E 024°56'0 0.0
2017-Sep-15 18:00N 37°26' E 024°56'0 0.0
2017-Sep-15 17:30N 37°26' E 024°56'2 4.3
2017-Sep-15 17:00N 37°28' E 024°57'815.4
2017-Sep-15 16:30N 37°35' E 024°53'815.8
2017-Sep-15 16:00N 37°42' E 024°49'3 1.4
2017-Sep-15 14:15N 37°45' E 024°50'415.2
2017-Sep-15 14:00N 37°42' E 024°54'815.4
2017-Sep-15 13:30N 37°37' E 025°01'714.7
2017-Sep-15 13:00N 37°32' E 025°08'2 3.5
2017-Sep-15 12:31N 37°31' E 025°09'714.6
2017-Sep-15 12:01N 37°23' E 025°09'714.9
2017-Sep-15 11:31N 37°16' E 025°08'815.0
2017-Sep-15 11:00N 37°08' E 025°08'3 5.5
2017-Sep-15 10:25N 37°05' E 025°09'510.7
2017-Sep-15 10:00N 37°10' E 025°08'815.6
2017-Sep-15 09:30N 37°17' E 025°08'815.5
2017-Sep-15 09:00N 37°25' E 025°08'714.4
2017-Sep-15 08:30N 37°32' E 025°09'4 7.2
2017-Sep-15 08:01N 37°34' E 025°05'815.8
2017-Sep-15 07:30N 37°39' E 024°58'815.6
2017-Sep-15 07:01N 37°44' E 024°51'3 1.7
2017-Sep-15 05:22N 37°42' E 024°48'514.8
2017-Sep-15 05:00N 37°38' E 024°52'815.1
2017-Sep-15 04:30N 37°31' E 024°56'5 8.4
2017-Sep-15 03:58N 37°26' E 024°56'0 0.0
2017-Sep-15 03:13N 37°26' E 024°56'0 0.0
2017-Sep-15 02:59N 37°26' E 024°56'0 0.0
2017-Sep-15 01:43N 37°26' E 024°56'0 0.0
2017-Sep-15 01:30N 37°26' E 024°56'0 0.0
2017-Sep-15 01:00N 37°26' E 024°56'0 0.0
2017-Sep-15 00:29N 37°26' E 024°56'0 0.0
2017-Sep-14 23:36N 37°26' E 024°56'0 0.0
2017-Sep-14 23:30N 37°26' E 024°56'0 0.0
2017-Sep-14 22:58N 37°26' E 024°56'0 0.0
2017-Sep-14 22:30N 37°26' E 024°56'2 4.0
2017-Sep-14 22:01N 37°28' E 024°58'714.8
2017-Sep-14 21:31N 37°35' E 024°53'815.3
2017-Sep-14 21:01N 37°42' E 024°49'4 2.1
2017-Sep-14 19:18N 37°45' E 024°51'715.1
2017-Sep-14 18:50N 37°40' E 024°57'514.7
2017-Sep-14 18:30N 37°36' E 025°01'714.3
2017-Sep-14 18:00N 37°32' E 025°08'3 6.7
2017-Sep-14 17:31N 37°29' E 025°09'714.1
2017-Sep-14 17:01N 37°22' E 025°08'714.4
2017-Sep-14 16:30N 37°15' E 025°08'714.7
2017-Sep-14 16:00N 37°07' E 025°07'1 2.2
2017-Sep-14 15:30N 37°06' E 025°07'815.4
2017-Sep-14 15:01N 37°14' E 025°08'815.7
2017-Sep-14 14:30N 37°22' E 025°09'815.8
2017-Sep-14 14:01N 37°30' E 025°09'4 7.8
2017-Sep-14 13:30N 37°33' E 025°06'815.6
2017-Sep-14 13:00N 37°38' E 024°59'815.1
2017-Sep-14 12:30N 37°44' E 024°52'3 1.8
2017-Sep-14 10:43N 37°42' E 024°48'314.4
2017-Sep-14 10:31N 37°40' E 024°50'714.8
2017-Sep-14 10:01N 37°33' E 024°55'714.6
2017-Sep-14 09:30N 37°26' E 024°57'3 6.6
2017-Sep-14 09:00N 37°30' E 024°57'714.7
2017-Sep-14 08:31N 37°31' E 024°48'3 0.2
2017-Sep-13 16:21N 37°31' E 024°44'515.5
2017-Sep-13 16:01N 37°31' E 024°50'713.0
2017-Sep-13 15:31N 37°28' E 024°57'2 4.7
2017-Sep-13 15:00N 37°25' E 024°58'815.1
2017-Sep-13 14:31N 37°18' E 025°01'815.1
2017-Sep-13 14:00N 37°11' E 025°05'7 9.0
2017-Sep-13 13:15N 37°05' E 025°08'412.5
2017-Sep-13 12:54N 37°09' E 025°11'614.7
2017-Sep-13 12:30N 37°10' E 025°19'4 8.6
2017-Sep-13 12:00N 37°06' E 025°22'510.5
2017-Sep-13 11:30N 37°03' E 025°18'4 0.1
2017-Sep-12 07:58N 36°59' E 025°16'715.9
2017-Sep-12 07:30N 37°06' E 025°20'1 2.9
2017-Sep-12 07:00N 37°07' E 025°21'713.9
2017-Sep-12 06:30N 37°10' E 025°13'610.7
2017-Sep-12 05:59N 37°05' E 025°09'2 5.1
2017-Sep-12 05:31N 37°07' E 025°06'815.4
2017-Sep-12 05:01N 37°14' E 025°02'816.0
2017-Sep-12 04:31N 37°21' E 024°60'611.1
2017-Sep-12 04:00N 37°26' E 024°56'0 0.0
2017-Sep-12 03:30N 37°26' E 024°56'0 0.0
2017-Sep-12 03:00N 37°26' E 024°56'0 0.0
2017-Sep-12 02:29N 37°26' E 024°56'0 0.0
2017-Sep-12 02:00N 37°26' E 024°56'  

Dump ship's entire track history